sensor_id;sensor_type;location;lat;lon;timestamp;P1;durP1;ratioP1;P2;durP2;ratioP2
4049;SDS011;2039;50.894;6.888;2023-08-20T00:00:28;82.80;;;24.17;;
4049;SDS011;2039;50.894;6.888;2023-08-20T00:02:58;83.00;;;26.00;;
4049;SDS011;2039;50.894;6.888;2023-08-20T00:05:28;84.83;;;24.07;;
4049;SDS011;2039;50.894;6.888;2023-08-20T00:07:54;99.20;;;26.57;;
4049;SDS011;2039;50.894;6.888;2023-08-20T00:10:20;81.73;;;23.77;;
4049;SDS011;2039;50.894;6.888;2023-08-20T00:12:46;85.80;;;26.40;;
4049;SDS011;2039;50.894;6.888;2023-08-20T00:15:11;81.90;;;22.20;;
4049;SDS011;2039;50.894;6.888;2023-08-20T00:17:38;82.70;;;24.63;;
4049;SDS011;2039;50.894;6.888;2023-08-20T00:20:05;82.17;;;22.10;;
4049;SDS011;2039;50.894;6.888;2023-08-20T00:22:41;83.77;;;23.20;;
4049;SDS011;2039;50.894;6.888;2023-08-20T00:25:10;83.70;;;24.13;;
4049;SDS011;2039;50.894;6.888;2023-08-20T00:27:36;88.47;;;23.03;;
4049;SDS011;2039;50.894;6.888;2023-08-20T00:30:03;85.83;;;24.70;;
4049;SDS011;2039;50.894;6.888;2023-08-20T00:32:29;82.40;;;24.20;;
4049;SDS011;2039;50.894;6.888;2023-08-20T00:34:55;89.47;;;26.07;;
4049;SDS011;2039;50.894;6.888;2023-08-20T00:37:21;83.33;;;25.23;;
4049;SDS011;2039;50.894;6.888;2023-08-20T00:39:47;84.30;;;24.27;;
4049;SDS011;2039;50.894;6.888;2023-08-20T00:42:12;83.07;;;23.60;;
4049;SDS011;2039;50.894;6.888;2023-08-20T00:44:39;82.63;;;22.60;;
4049;SDS011;2039;50.894;6.888;2023-08-20T00:47:07;81.53;;;20.77;;
4049;SDS011;2039;50.894;6.888;2023-08-20T00:49:33;80.10;;;21.80;;
4049;SDS011;2039;50.894;6.888;2023-08-20T00:51:59;88.00;;;23.87;;
4049;SDS011;2039;50.894;6.888;2023-08-20T00:54:26;83.87;;;22.97;;
4049;SDS011;2039;50.894;6.888;2023-08-20T00:56:54;86.70;;;24.57;;
4049;SDS011;2039;50.894;6.888;2023-08-20T00:59:20;85.43;;;23.00;;
4049;SDS011;2039;50.894;6.888;2023-08-20T01:01:45;82.80;;;22.37;;
4049;SDS011;2039;50.894;6.888;2023-08-20T01:04:11;83.43;;;21.97;;
4049;SDS011;2039;50.894;6.888;2023-08-20T01:06:51;86.47;;;21.57;;
4049;SDS011;2039;50.894;6.888;2023-08-20T01:12:05;84.00;;;22.57;;
4049;SDS011;2039;50.894;6.888;2023-08-20T01:14:31;82.43;;;23.43;;
4049;SDS011;2039;50.894;6.888;2023-08-20T01:17:00;81.03;;;22.73;;
4049;SDS011;2039;50.894;6.888;2023-08-20T01:19:26;79.90;;;20.23;;
4049;SDS011;2039;50.894;6.888;2023-08-20T01:25:12;81.57;;;20.47;;
4049;SDS011;2039;50.894;6.888;2023-08-20T01:28:20;82.60;;;22.83;;
4049;SDS011;2039;50.894;6.888;2023-08-20T01:30:57;80.77;;;23.20;;
4049;SDS011;2039;50.894;6.888;2023-08-20T01:33:24;81.50;;;20.37;;
4049;SDS011;2039;50.894;6.888;2023-08-20T01:35:53;81.97;;;22.30;;
4049;SDS011;2039;50.894;6.888;2023-08-20T01:38:20;87.47;;;23.40;;
4049;SDS011;2039;50.894;6.888;2023-08-20T01:40:46;82.27;;;19.83;;
4049;SDS011;2039;50.894;6.888;2023-08-20T01:43:12;82.60;;;20.07;;
4049;SDS011;2039;50.894;6.888;2023-08-20T01:45:38;82.37;;;21.33;;
4049;SDS011;2039;50.894;6.888;2023-08-20T01:48:04;82.40;;;21.87;;
4049;SDS011;2039;50.894;6.888;2023-08-20T01:50:30;82.40;;;21.30;;
4049;SDS011;2039;50.894;6.888;2023-08-20T01:52:56;80.37;;;19.73;;
4049;SDS011;2039;50.894;6.888;2023-08-20T01:55:22;80.17;;;16.50;;
4049;SDS011;2039;50.894;6.888;2023-08-20T01:57:48;80.60;;;20.20;;
4049;SDS011;2039;50.894;6.888;2023-08-20T02:00:13;79.00;;;18.77;;
4049;SDS011;2039;50.894;6.888;2023-08-20T02:02:39;80.20;;;22.40;;
4049;SDS011;2039;50.894;6.888;2023-08-20T02:05:05;81.33;;;22.00;;
4049;SDS011;2039;50.894;6.888;2023-08-20T02:07:31;80.97;;;22.43;;
4049;SDS011;2039;50.894;6.888;2023-08-20T02:09:57;84.47;;;22.63;;
4049;SDS011;2039;50.894;6.888;2023-08-20T02:12:22;82.60;;;25.17;;
4049;SDS011;2039;50.894;6.888;2023-08-20T02:14:48;85.03;;;24.60;;
4049;SDS011;2039;50.894;6.888;2023-08-20T02:17:14;84.63;;;29.77;;
4049;SDS011;2039;50.894;6.888;2023-08-20T02:19:41;81.57;;;24.70;;
4049;SDS011;2039;50.894;6.888;2023-08-20T02:22:06;84.03;;;26.70;;
4049;SDS011;2039;50.894;6.888;2023-08-20T02:24:32;81.17;;;20.90;;
4049;SDS011;2039;50.894;6.888;2023-08-20T02:26:58;80.27;;;21.90;;
4049;SDS011;2039;50.894;6.888;2023-08-20T02:29:23;80.80;;;23.17;;
4049;SDS011;2039;50.894;6.888;2023-08-20T02:31:49;81.13;;;27.70;;
4049;SDS011;2039;50.894;6.888;2023-08-20T02:34:15;82.27;;;25.73;;
4049;SDS011;2039;50.894;6.888;2023-08-20T02:36:40;86.33;;;26.43;;
4049;SDS011;2039;50.894;6.888;2023-08-20T02:39:06;85.40;;;25.80;;
4049;SDS011;2039;50.894;6.888;2023-08-20T02:41:35;80.30;;;22.43;;
4049;SDS011;2039;50.894;6.888;2023-08-20T02:44:01;84.10;;;22.73;;
4049;SDS011;2039;50.894;6.888;2023-08-20T02:46:28;83.60;;;25.23;;
4049;SDS011;2039;50.894;6.888;2023-08-20T02:48:54;81.57;;;21.83;;
4049;SDS011;2039;50.894;6.888;2023-08-20T02:51:19;83.17;;;24.43;;
4049;SDS011;2039;50.894;6.888;2023-08-20T02:53:45;85.90;;;28.23;;
4049;SDS011;2039;50.894;6.888;2023-08-20T02:56:10;88.83;;;28.07;;
4049;SDS011;2039;50.894;6.888;2023-08-20T02:58:36;83.17;;;28.17;;
4049;SDS011;2039;50.894;6.888;2023-08-20T03:01:02;83.10;;;23.63;;
4049;SDS011;2039;50.894;6.888;2023-08-20T03:03:27;80.50;;;26.10;;
4049;SDS011;2039;50.894;6.888;2023-08-20T03:05:53;81.57;;;23.93;;
4049;SDS011;2039;50.894;6.888;2023-08-20T03:08:19;84.97;;;26.10;;
4049;SDS011;2039;50.894;6.888;2023-08-20T03:10:44;79.80;;;21.93;;
4049;SDS011;2039;50.894;6.888;2023-08-20T03:13:10;78.57;;;21.73;;
4049;SDS011;2039;50.894;6.888;2023-08-20T03:15:36;82.40;;;25.60;;
4049;SDS011;2039;50.894;6.888;2023-08-20T03:18:02;81.40;;;25.80;;
4049;SDS011;2039;50.894;6.888;2023-08-20T03:20:28;82.37;;;29.60;;
4049;SDS011;2039;50.894;6.888;2023-08-20T03:22:56;80.00;;;23.03;;
4049;SDS011;2039;50.894;6.888;2023-08-20T03:25:22;81.77;;;25.03;;
4049;SDS011;2039;50.894;6.888;2023-08-20T03:27:49;82.50;;;24.13;;
4049;SDS011;2039;50.894;6.888;2023-08-20T03:30:14;78.40;;;22.70;;
4049;SDS011;2039;50.894;6.888;2023-08-20T03:32:40;81.93;;;27.63;;
4049;SDS011;2039;50.894;6.888;2023-08-20T03:35:09;79.77;;;24.57;;
4049;SDS011;2039;50.894;6.888;2023-08-20T03:37:34;82.70;;;26.20;;
4049;SDS011;2039;50.894;6.888;2023-08-20T03:40:00;80.50;;;23.37;;
4049;SDS011;2039;50.894;6.888;2023-08-20T03:42:27;87.73;;;26.57;;
4049;SDS011;2039;50.894;6.888;2023-08-20T03:44:53;81.80;;;26.80;;
4049;SDS011;2039;50.894;6.888;2023-08-20T03:47:18;82.30;;;26.73;;
4049;SDS011;2039;50.894;6.888;2023-08-20T03:49:47;79.87;;;24.10;;
4049;SDS011;2039;50.894;6.888;2023-08-20T03:52:15;81.70;;;24.37;;
4049;SDS011;2039;50.894;6.888;2023-08-20T03:54:41;80.30;;;22.40;;
4049;SDS011;2039;50.894;6.888;2023-08-20T03:57:06;81.90;;;23.47;;
4049;SDS011;2039;50.894;6.888;2023-08-20T03:59:32;81.57;;;24.73;;
4049;SDS011;2039;50.894;6.888;2023-08-20T04:01:58;83.43;;;28.80;;
4049;SDS011;2039;50.894;6.888;2023-08-20T04:04:24;83.43;;;38.00;;
4049;SDS011;2039;50.894;6.888;2023-08-20T04:06:50;86.83;;;38.87;;
4049;SDS011;2039;50.894;6.888;2023-08-20T04:09:16;88.87;;;41.73;;
4049;SDS011;2039;50.894;6.888;2023-08-20T04:11:42;89.73;;;48.27;;
4049;SDS011;2039;50.894;6.888;2023-08-20T04:14:07;98.57;;;55.10;;
4049;SDS011;2039;50.894;6.888;2023-08-20T04:16:33;88.87;;;45.30;;
4049;SDS011;2039;50.894;6.888;2023-08-20T04:18:59;95.73;;;63.97;;
4049;SDS011;2039;50.894;6.888;2023-08-20T04:21:24;92.77;;;55.00;;
4049;SDS011;2039;50.894;6.888;2023-08-20T04:23:50;95.33;;;65.00;;
4049;SDS011;2039;50.894;6.888;2023-08-20T04:26:16;95.97;;;64.53;;
4049;SDS011;2039;50.894;6.888;2023-08-20T04:28:41;92.50;;;57.37;;
4049;SDS011;2039;50.894;6.888;2023-08-20T04:31:07;93.10;;;59.83;;
4049;SDS011;2039;50.894;6.888;2023-08-20T04:33:33;92.17;;;56.43;;
4049;SDS011;2039;50.894;6.888;2023-08-20T04:35:58;94.47;;;54.90;;
4049;SDS011;2039;50.894;6.888;2023-08-20T04:38:24;90.17;;;45.90;;
4049;SDS011;2039;50.894;6.888;2023-08-20T04:40:49;88.03;;;45.00;;
4049;SDS011;2039;50.894;6.888;2023-08-20T04:43:15;87.63;;;39.17;;
4049;SDS011;2039;50.894;6.888;2023-08-20T04:45:41;88.83;;;40.50;;
4049;SDS011;2039;50.894;6.888;2023-08-20T04:48:07;90.97;;;51.83;;
4049;SDS011;2039;50.894;6.888;2023-08-20T04:50:33;93.43;;;51.00;;
4049;SDS011;2039;50.894;6.888;2023-08-20T04:52:59;91.83;;;51.47;;
4049;SDS011;2039;50.894;6.888;2023-08-20T04:55:25;90.23;;;45.60;;
4049;SDS011;2039;50.894;6.888;2023-08-20T04:57:52;86.47;;;38.83;;
4049;SDS011;2039;50.894;6.888;2023-08-20T05:00:17;85.90;;;30.60;;
4049;SDS011;2039;50.894;6.888;2023-08-20T05:02:43;85.43;;;33.87;;
4049;SDS011;2039;50.894;6.888;2023-08-20T05:05:10;83.87;;;35.07;;
4049;SDS011;2039;50.894;6.888;2023-08-20T05:07:36;87.10;;;38.27;;
4049;SDS011;2039;50.894;6.888;2023-08-20T05:10:01;85.27;;;37.00;;
4049;SDS011;2039;50.894;6.888;2023-08-20T05:12:27;87.50;;;37.83;;
4049;SDS011;2039;50.894;6.888;2023-08-20T05:14:53;90.23;;;48.67;;
4049;SDS011;2039;50.894;6.888;2023-08-20T05:17:19;92.37;;;51.37;;
4049;SDS011;2039;50.894;6.888;2023-08-20T05:19:44;90.57;;;52.40;;
4049;SDS011;2039;50.894;6.888;2023-08-20T05:22:10;92.90;;;49.60;;
4049;SDS011;2039;50.894;6.888;2023-08-20T05:24:36;90.70;;;45.37;;
4049;SDS011;2039;50.894;6.888;2023-08-20T05:27:10;90.67;;;47.57;;
4049;SDS011;2039;50.894;6.888;2023-08-20T05:29:39;93.47;;;52.47;;
4049;SDS011;2039;50.894;6.888;2023-08-20T05:32:06;91.47;;;44.93;;
4049;SDS011;2039;50.894;6.888;2023-08-20T05:34:32;89.67;;;46.90;;
4049;SDS011;2039;50.894;6.888;2023-08-20T05:36:58;93.00;;;43.47;;
4049;SDS011;2039;50.894;6.888;2023-08-20T05:39:23;88.27;;;39.97;;
4049;SDS011;2039;50.894;6.888;2023-08-20T05:41:51;90.80;;;39.07;;
4049;SDS011;2039;50.894;6.888;2023-08-20T05:44:17;93.17;;;43.60;;
4049;SDS011;2039;50.894;6.888;2023-08-20T05:46:43;91.83;;;43.80;;
4049;SDS011;2039;50.894;6.888;2023-08-20T05:49:08;95.13;;;41.90;;
4049;SDS011;2039;50.894;6.888;2023-08-20T05:51:34;91.37;;;43.60;;
4049;SDS011;2039;50.894;6.888;2023-08-20T05:54:00;98.50;;;38.40;;
4049;SDS011;2039;50.894;6.888;2023-08-20T05:56:25;92.93;;;36.40;;
4049;SDS011;2039;50.894;6.888;2023-08-20T05:58:51;90.10;;;29.60;;
4049;SDS011;2039;50.894;6.888;2023-08-20T06:01:16;93.63;;;39.10;;
4049;SDS011;2039;50.894;6.888;2023-08-20T06:03:42;98.67;;;39.63;;
4049;SDS011;2039;50.894;6.888;2023-08-20T06:06:08;94.07;;;42.40;;
4049;SDS011;2039;50.894;6.888;2023-08-20T06:08:33;93.67;;;43.10;;
4049;SDS011;2039;50.894;6.888;2023-08-20T06:10:59;89.87;;;37.27;;
4049;SDS011;2039;50.894;6.888;2023-08-20T06:13:25;93.70;;;43.77;;
4049;SDS011;2039;50.894;6.888;2023-08-20T06:15:50;102.67;;;48.97;;
4049;SDS011;2039;50.894;6.888;2023-08-20T06:18:16;91.60;;;40.17;;
4049;SDS011;2039;50.894;6.888;2023-08-20T06:20:42;91.57;;;38.03;;
4049;SDS011;2039;50.894;6.888;2023-08-20T06:23:07;91.40;;;36.63;;
4049;SDS011;2039;50.894;6.888;2023-08-20T06:25:33;95.20;;;37.13;;
4049;SDS011;2039;50.894;6.888;2023-08-20T06:27:59;91.47;;;38.47;;
4049;SDS011;2039;50.894;6.888;2023-08-20T06:30:24;95.97;;;48.87;;
4049;SDS011;2039;50.894;6.888;2023-08-20T06:32:50;91.80;;;39.93;;
4049;SDS011;2039;50.894;6.888;2023-08-20T06:35:15;88.63;;;26.07;;
4049;SDS011;2039;50.894;6.888;2023-08-20T06:37:42;92.47;;;29.63;;
4049;SDS011;2039;50.894;6.888;2023-08-20T06:40:07;90.83;;;34.87;;
4049;SDS011;2039;50.894;6.888;2023-08-20T06:42:33;88.47;;;30.07;;
4049;SDS011;2039;50.894;6.888;2023-08-20T06:44:59;86.23;;;26.17;;
4049;SDS011;2039;50.894;6.888;2023-08-20T06:47:25;91.27;;;29.43;;
4049;SDS011;2039;50.894;6.888;2023-08-20T06:49:51;91.30;;;30.07;;
4049;SDS011;2039;50.894;6.888;2023-08-20T06:52:17;89.47;;;25.20;;
4049;SDS011;2039;50.894;6.888;2023-08-20T06:54:43;85.50;;;23.90;;
4049;SDS011;2039;50.894;6.888;2023-08-20T06:57:09;92.17;;;25.30;;
4049;SDS011;2039;50.894;6.888;2023-08-20T06:59:35;87.27;;;29.67;;
4049;SDS011;2039;50.894;6.888;2023-08-20T07:02:01;88.87;;;30.67;;
4049;SDS011;2039;50.894;6.888;2023-08-20T07:04:28;88.03;;;27.03;;
4049;SDS011;2039;50.894;6.888;2023-08-20T07:06:54;85.30;;;22.80;;
4049;SDS011;2039;50.894;6.888;2023-08-20T07:09:22;89.80;;;27.50;;
4049;SDS011;2039;50.894;6.888;2023-08-20T07:11:48;89.20;;;29.30;;
4049;SDS011;2039;50.894;6.888;2023-08-20T07:14:14;91.53;;;35.23;;
4049;SDS011;2039;50.894;6.888;2023-08-20T07:16:39;93.97;;;33.40;;
4049;SDS011;2039;50.894;6.888;2023-08-20T07:19:05;92.77;;;35.97;;
4049;SDS011;2039;50.894;6.888;2023-08-20T07:21:31;93.93;;;34.87;;
4049;SDS011;2039;50.894;6.888;2023-08-20T07:24:00;94.80;;;40.23;;
4049;SDS011;2039;50.894;6.888;2023-08-20T07:26:26;96.93;;;38.47;;
4049;SDS011;2039;50.894;6.888;2023-08-20T07:28:51;99.20;;;40.83;;
4049;SDS011;2039;50.894;6.888;2023-08-20T07:31:24;96.13;;;39.70;;
4049;SDS011;2039;50.894;6.888;2023-08-20T07:33:54;98.77;;;42.23;;
4049;SDS011;2039;50.894;6.888;2023-08-20T07:36:28;94.60;;;38.03;;
4049;SDS011;2039;50.894;6.888;2023-08-20T07:38:54;96.80;;;38.13;;
4049;SDS011;2039;50.894;6.888;2023-08-20T07:41:20;99.27;;;39.97;;
4049;SDS011;2039;50.894;6.888;2023-08-20T07:43:47;96.37;;;42.93;;
4049;SDS011;2039;50.894;6.888;2023-08-20T07:46:13;103.87;;;44.10;;
4049;SDS011;2039;50.894;6.888;2023-08-20T07:48:40;97.57;;;38.67;;
4049;SDS011;2039;50.894;6.888;2023-08-20T07:51:06;99.07;;;47.70;;
4049;SDS011;2039;50.894;6.888;2023-08-20T07:53:32;95.20;;;35.77;;
4049;SDS011;2039;50.894;6.888;2023-08-20T07:55:59;94.90;;;31.57;;
4049;SDS011;2039;50.894;6.888;2023-08-20T07:58:25;92.67;;;31.27;;
4049;SDS011;2039;50.894;6.888;2023-08-20T08:00:51;93.97;;;33.83;;
4049;SDS011;2039;50.894;6.888;2023-08-20T08:03:16;93.37;;;37.00;;
4049;SDS011;2039;50.894;6.888;2023-08-20T08:05:46;105.87;;;48.07;;
4049;SDS011;2039;50.894;6.888;2023-08-20T08:08:13;96.20;;;41.20;;
4049;SDS011;2039;50.894;6.888;2023-08-20T08:10:42;92.30;;;33.10;;
4049;SDS011;2039;50.894;6.888;2023-08-20T08:13:10;91.53;;;33.47;;
4049;SDS011;2039;50.894;6.888;2023-08-20T08:15:37;96.03;;;31.80;;
4049;SDS011;2039;50.894;6.888;2023-08-20T08:18:02;94.27;;;31.60;;
4049;SDS011;2039;50.894;6.888;2023-08-20T08:20:28;97.80;;;31.40;;
4049;SDS011;2039;50.894;6.888;2023-08-20T08:22:54;93.40;;;31.63;;
4049;SDS011;2039;50.894;6.888;2023-08-20T08:25:22;92.83;;;32.53;;
4049;SDS011;2039;50.894;6.888;2023-08-20T08:27:48;92.10;;;32.03;;
4049;SDS011;2039;50.894;6.888;2023-08-20T08:30:13;92.10;;;32.17;;
4049;SDS011;2039;50.894;6.888;2023-08-20T08:32:39;99.40;;;29.90;;
4049;SDS011;2039;50.894;6.888;2023-08-20T08:35:05;88.00;;;27.23;;
4049;SDS011;2039;50.894;6.888;2023-08-20T08:37:32;89.47;;;28.67;;
4049;SDS011;2039;50.894;6.888;2023-08-20T08:39:57;90.00;;;27.60;;
4049;SDS011;2039;50.894;6.888;2023-08-20T08:42:23;92.37;;;25.00;;
4049;SDS011;2039;50.894;6.888;2023-08-20T08:44:52;86.10;;;22.73;;
4049;SDS011;2039;50.894;6.888;2023-08-20T08:47:18;96.20;;;29.23;;
4049;SDS011;2039;50.894;6.888;2023-08-20T08:49:46;88.50;;;22.63;;
4049;SDS011;2039;50.894;6.888;2023-08-20T08:52:14;86.03;;;22.63;;
4049;SDS011;2039;50.894;6.888;2023-08-20T08:54:40;87.87;;;25.13;;
4049;SDS011;2039;50.894;6.888;2023-08-20T08:57:06;86.73;;;25.87;;
4049;SDS011;2039;50.894;6.888;2023-08-20T08:59:32;83.83;;;24.00;;
4049;SDS011;2039;50.894;6.888;2023-08-20T09:01:58;86.30;;;24.40;;
4049;SDS011;2039;50.894;6.888;2023-08-20T09:04:24;91.50;;;25.00;;
4049;SDS011;2039;50.894;6.888;2023-08-20T09:06:51;86.40;;;26.60;;
4049;SDS011;2039;50.894;6.888;2023-08-20T09:09:18;84.37;;;24.23;;
4049;SDS011;2039;50.894;6.888;2023-08-20T09:11:46;84.77;;;24.53;;
4049;SDS011;2039;50.894;6.888;2023-08-20T09:14:22;86.03;;;25.10;;
4049;SDS011;2039;50.894;6.888;2023-08-20T09:16:57;89.33;;;24.40;;
4049;SDS011;2039;50.894;6.888;2023-08-20T09:19:23;85.90;;;28.63;;
4049;SDS011;2039;50.894;6.888;2023-08-20T09:21:49;85.87;;;28.07;;
4049;SDS011;2039;50.894;6.888;2023-08-20T09:24:22;84.67;;;23.03;;
4049;SDS011;2039;50.894;6.888;2023-08-20T09:26:57;84.13;;;23.47;;
4049;SDS011;2039;50.894;6.888;2023-08-20T09:29:25;82.70;;;19.37;;
4049;SDS011;2039;50.894;6.888;2023-08-20T09:31:51;81.83;;;23.20;;
4049;SDS011;2039;50.894;6.888;2023-08-20T09:34:35;87.60;;;21.40;;
4049;SDS011;2039;50.894;6.888;2023-08-20T09:37:02;83.43;;;18.53;;
4049;SDS011;2039;50.894;6.888;2023-08-20T09:39:28;86.10;;;16.33;;
4049;SDS011;2039;50.894;6.888;2023-08-20T09:41:54;82.30;;;16.80;;
4049;SDS011;2039;50.894;6.888;2023-08-20T09:44:21;83.53;;;17.73;;
4049;SDS011;2039;50.894;6.888;2023-08-20T09:46:48;83.77;;;23.90;;
4049;SDS011;2039;50.894;6.888;2023-08-20T09:49:14;82.03;;;25.20;;
4049;SDS011;2039;50.894;6.888;2023-08-20T09:51:44;83.33;;;25.10;;
4049;SDS011;2039;50.894;6.888;2023-08-20T09:54:21;88.97;;;36.30;;
4049;SDS011;2039;50.894;6.888;2023-08-20T09:56:58;90.63;;;44.27;;
4049;SDS011;2039;50.894;6.888;2023-08-20T09:59:26;93.20;;;47.97;;
4049;SDS011;2039;50.894;6.888;2023-08-20T10:01:52;93.70;;;41.80;;
4049;SDS011;2039;50.894;6.888;2023-08-20T10:04:19;89.60;;;40.93;;
4049;SDS011;2039;50.894;6.888;2023-08-20T10:06:46;89.50;;;37.37;;
4049;SDS011;2039;50.894;6.888;2023-08-20T10:09:14;91.20;;;38.50;;
4049;SDS011;2039;50.894;6.888;2023-08-20T10:11:40;81.77;;;19.50;;
4049;SDS011;2039;50.894;6.888;2023-08-20T10:14:06;83.10;;;18.57;;
4049;SDS011;2039;50.894;6.888;2023-08-20T10:16:33;79.97;;;16.80;;
4049;SDS011;2039;50.894;6.888;2023-08-20T10:19:01;83.20;;;19.63;;
4049;SDS011;2039;50.894;6.888;2023-08-20T10:21:28;80.83;;;16.60;;
4049;SDS011;2039;50.894;6.888;2023-08-20T10:23:54;79.87;;;16.63;;
4049;SDS011;2039;50.894;6.888;2023-08-20T10:26:20;82.00;;;14.30;;
4049;SDS011;2039;50.894;6.888;2023-08-20T10:28:47;79.07;;;14.17;;
4049;SDS011;2039;50.894;6.888;2023-08-20T10:31:12;79.30;;;13.40;;
4049;SDS011;2039;50.894;6.888;2023-08-20T10:36:14;82.60;;;13.30;;
4049;SDS011;2039;50.894;6.888;2023-08-20T10:38:47;81.57;;;12.40;;
4049;SDS011;2039;50.894;6.888;2023-08-20T10:41:14;81.17;;;15.67;;
4049;SDS011;2039;50.894;6.888;2023-08-20T10:43:48;79.10;;;14.30;;
4049;SDS011;2039;50.894;6.888;2023-08-20T10:46:21;80.03;;;16.70;;
4049;SDS011;2039;50.894;6.888;2023-08-20T10:48:49;81.73;;;16.53;;
4049;SDS011;2039;50.894;6.888;2023-08-20T10:54:02;79.27;;;14.57;;
4049;SDS011;2039;50.894;6.888;2023-08-20T10:56:46;76.80;;;12.33;;
4049;SDS011;2039;50.894;6.888;2023-08-20T10:59:16;76.77;;;12.10;;
4049;SDS011;2039;50.894;6.888;2023-08-20T11:01:52;78.47;;;12.20;;
4049;SDS011;2039;50.894;6.888;2023-08-20T11:04:21;78.43;;;11.53;;
4049;SDS011;2039;50.894;6.888;2023-08-20T11:06:54;78.00;;;10.50;;
4049;SDS011;2039;50.894;6.888;2023-08-20T11:09:25;78.90;;;12.07;;
4049;SDS011;2039;50.894;6.888;2023-08-20T11:11:52;75.70;;;9.87;;
4049;SDS011;2039;50.894;6.888;2023-08-20T11:14:19;77.37;;;12.20;;
4049;SDS011;2039;50.894;6.888;2023-08-20T11:16:46;77.30;;;11.27;;
4049;SDS011;2039;50.894;6.888;2023-08-20T11:19:13;78.40;;;10.47;;
4049;SDS011;2039;50.894;6.888;2023-08-20T11:21:40;79.07;;;10.47;;
4049;SDS011;2039;50.894;6.888;2023-08-20T11:24:08;77.20;;;10.80;;
4049;SDS011;2039;50.894;6.888;2023-08-20T11:26:34;79.80;;;13.07;;
4049;SDS011;2039;50.894;6.888;2023-08-20T11:29:10;77.87;;;16.27;;
4049;SDS011;2039;50.894;6.888;2023-08-20T11:31:45;82.93;;;18.83;;
4049;SDS011;2039;50.894;6.888;2023-08-20T11:34:11;79.60;;;19.37;;
4049;SDS011;2039;50.894;6.888;2023-08-20T11:36:38;78.40;;;15.03;;
4049;SDS011;2039;50.894;6.888;2023-08-20T11:39:04;77.07;;;15.67;;
4049;SDS011;2039;50.894;6.888;2023-08-20T11:41:30;83.13;;;29.37;;
4049;SDS011;2039;50.894;6.888;2023-08-20T11:43:56;82.47;;;28.97;;
4049;SDS011;2039;50.894;6.888;2023-08-20T11:46:22;78.57;;;16.37;;
4049;SDS011;2039;50.894;6.888;2023-08-20T11:48:59;81.30;;;25.17;;
4049;SDS011;2039;50.894;6.888;2023-08-20T11:51:29;82.27;;;22.60;;
4049;SDS011;2039;50.894;6.888;2023-08-20T11:53:57;80.97;;;21.13;;
4049;SDS011;2039;50.894;6.888;2023-08-20T11:56:23;82.87;;;20.17;;
4049;SDS011;2039;50.894;6.888;2023-08-20T11:58:52;80.97;;;21.27;;
4049;SDS011;2039;50.894;6.888;2023-08-20T12:01:20;80.23;;;23.10;;
4049;SDS011;2039;50.894;6.888;2023-08-20T12:03:46;82.20;;;27.20;;
4049;SDS011;2039;50.894;6.888;2023-08-20T12:08:44;83.57;;;17.97;;
4049;SDS011;2039;50.894;6.888;2023-08-20T12:11:10;78.03;;;12.20;;
4049;SDS011;2039;50.894;6.888;2023-08-20T12:13:40;76.27;;;10.47;;
4049;SDS011;2039;50.894;6.888;2023-08-20T12:16:05;76.27;;;8.10;;
4049;SDS011;2039;50.894;6.888;2023-08-20T12:18:32;78.80;;;8.00;;
4049;SDS011;2039;50.894;6.888;2023-08-20T12:21:00;77.47;;;6.90;;
4049;SDS011;2039;50.894;6.888;2023-08-20T12:23:27;74.93;;;7.83;;
4049;SDS011;2039;50.894;6.888;2023-08-20T12:25:53;75.07;;;7.60;;
4049;SDS011;2039;50.894;6.888;2023-08-20T12:28:21;76.83;;;8.13;;
4049;SDS011;2039;50.894;6.888;2023-08-20T12:30:47;75.57;;;7.83;;
4049;SDS011;2039;50.894;6.888;2023-08-20T12:33:13;76.70;;;7.30;;
4049;SDS011;2039;50.894;6.888;2023-08-20T12:35:39;75.73;;;6.70;;
4049;SDS011;2039;50.894;6.888;2023-08-20T12:38:04;75.27;;;6.30;;
4049;SDS011;2039;50.894;6.888;2023-08-20T12:40:35;74.87;;;7.20;;
4049;SDS011;2039;50.894;6.888;2023-08-20T12:43:06;75.10;;;7.30;;
4049;SDS011;2039;50.894;6.888;2023-08-20T12:45:35;78.17;;;7.50;;
4049;SDS011;2039;50.894;6.888;2023-08-20T12:48:07;75.97;;;7.70;;
4049;SDS011;2039;50.894;6.888;2023-08-20T12:50:34;74.00;;;7.10;;
4049;SDS011;2039;50.894;6.888;2023-08-20T12:53:06;74.10;;;6.70;;
4049;SDS011;2039;50.894;6.888;2023-08-20T12:55:37;74.20;;;7.43;;
4049;SDS011;2039;50.894;6.888;2023-08-20T12:58:05;77.07;;;7.20;;
4049;SDS011;2039;50.894;6.888;2023-08-20T13:00:34;80.40;;;7.47;;
4049;SDS011;2039;50.894;6.888;2023-08-20T13:03:00;75.43;;;6.77;;
4049;SDS011;2039;50.894;6.888;2023-08-20T13:05:26;76.20;;;6.60;;
4049;SDS011;2039;50.894;6.888;2023-08-20T13:07:52;73.57;;;6.30;;
4049;SDS011;2039;50.894;6.888;2023-08-20T13:10:18;75.67;;;7.80;;
4049;SDS011;2039;50.894;6.888;2023-08-20T13:12:47;73.90;;;7.20;;
4049;SDS011;2039;50.894;6.888;2023-08-20T13:15:18;73.93;;;6.90;;
4049;SDS011;2039;50.894;6.888;2023-08-20T13:17:50;73.10;;;6.70;;
4049;SDS011;2039;50.894;6.888;2023-08-20T13:20:20;76.23;;;8.03;;
4049;SDS011;2039;50.894;6.888;2023-08-20T13:22:50;72.50;;;6.57;;
4049;SDS011;2039;50.894;6.888;2023-08-20T13:25:19;74.83;;;6.80;;
4049;SDS011;2039;50.894;6.888;2023-08-20T13:27:48;73.43;;;6.30;;
4049;SDS011;2039;50.894;6.888;2023-08-20T13:30:14;74.87;;;7.00;;
4049;SDS011;2039;50.894;6.888;2023-08-20T13:32:40;74.70;;;7.43;;
4049;SDS011;2039;50.894;6.888;2023-08-20T13:35:09;73.40;;;6.53;;
4049;SDS011;2039;50.894;6.888;2023-08-20T13:37:39;75.37;;;7.00;;
4049;SDS011;2039;50.894;6.888;2023-08-20T13:40:05;74.10;;;7.20;;
4049;SDS011;2039;50.894;6.888;2023-08-20T13:42:34;74.43;;;7.07;;
4049;SDS011;2039;50.894;6.888;2023-08-20T13:44:59;74.27;;;7.30;;
4049;SDS011;2039;50.894;6.888;2023-08-20T13:47:25;74.80;;;6.40;;
4049;SDS011;2039;50.894;6.888;2023-08-20T13:49:51;75.37;;;7.00;;
4049;SDS011;2039;50.894;6.888;2023-08-20T13:52:17;75.50;;;6.77;;
4049;SDS011;2039;50.894;6.888;2023-08-20T13:54:42;75.27;;;7.80;;
4049;SDS011;2039;50.894;6.888;2023-08-20T13:57:08;76.50;;;6.80;;
4049;SDS011;2039;50.894;6.888;2023-08-20T13:59:34;73.20;;;6.10;;
4049;SDS011;2039;50.894;6.888;2023-08-20T14:02:00;74.43;;;6.77;;
4049;SDS011;2039;50.894;6.888;2023-08-20T14:04:25;74.30;;;7.30;;
4049;SDS011;2039;50.894;6.888;2023-08-20T14:06:51;74.40;;;7.17;;
4049;SDS011;2039;50.894;6.888;2023-08-20T14:09:17;73.77;;;7.13;;
4049;SDS011;2039;50.894;6.888;2023-08-20T14:11:44;73.10;;;6.67;;
4049;SDS011;2039;50.894;6.888;2023-08-20T14:14:10;74.17;;;7.90;;
4049;SDS011;2039;50.894;6.888;2023-08-20T14:16:38;83.60;;;8.50;;
4049;SDS011;2039;50.894;6.888;2023-08-20T14:19:04;73.80;;;7.00;;
4049;SDS011;2039;50.894;6.888;2023-08-20T14:21:33;73.63;;;7.23;;
4049;SDS011;2039;50.894;6.888;2023-08-20T14:23:59;76.60;;;7.27;;
4049;SDS011;2039;50.894;6.888;2023-08-20T14:26:24;77.50;;;6.47;;
4049;SDS011;2039;50.894;6.888;2023-08-20T14:28:50;74.70;;;6.97;;
4049;SDS011;2039;50.894;6.888;2023-08-20T14:31:16;73.50;;;6.93;;
4049;SDS011;2039;50.894;6.888;2023-08-20T14:33:43;75.00;;;7.57;;
4049;SDS011;2039;50.894;6.888;2023-08-20T14:36:09;74.50;;;6.70;;
4049;SDS011;2039;50.894;6.888;2023-08-20T14:38:35;74.37;;;7.50;;
4049;SDS011;2039;50.894;6.888;2023-08-20T14:41:01;73.03;;;6.30;;
4049;SDS011;2039;50.894;6.888;2023-08-20T14:43:28;73.77;;;6.93;;
4049;SDS011;2039;50.894;6.888;2023-08-20T14:45:54;75.37;;;6.47;;
4049;SDS011;2039;50.894;6.888;2023-08-20T14:48:20;73.80;;;6.63;;
4049;SDS011;2039;50.894;6.888;2023-08-20T14:50:50;73.57;;;7.30;;
4049;SDS011;2039;50.894;6.888;2023-08-20T14:53:17;72.80;;;6.93;;
4049;SDS011;2039;50.894;6.888;2023-08-20T14:55:43;75.90;;;6.43;;
4049;SDS011;2039;50.894;6.888;2023-08-20T14:58:09;73.70;;;7.10;;
4049;SDS011;2039;50.894;6.888;2023-08-20T15:00:35;74.07;;;7.03;;
4049;SDS011;2039;50.894;6.888;2023-08-20T15:03:01;75.00;;;6.90;;